createdAt,value
2019-03-20T00:01:10.221Z,86.67
2019-03-20T00:03:38.988Z,86.79
2019-03-20T00:06:07.588Z,87.19
2019-03-20T00:08:36.139Z,87.90
2019-03-20T00:11:05.192Z,87.60
2019-03-20T00:13:33.815Z,87.57
2019-03-20T00:16:02.379Z,87.38
2019-03-20T00:18:31.026Z,87.88
2019-03-20T00:20:59.760Z,87.67
2019-03-20T00:23:28.502Z,87.87
2019-03-20T00:25:57.227Z,87.98
2019-03-20T00:28:25.956Z,87.63
2019-03-20T00:30:54.623Z,86.64
2019-03-20T00:33:23.384Z,86.29
2019-03-20T00:35:52.007Z,86.70
2019-03-20T00:38:20.750Z,86.50
2019-03-20T00:40:49.522Z,86.22
2019-03-20T00:43:18.344Z,85.56
2019-03-20T00:45:46.978Z,84.41
2019-03-20T00:48:15.571Z,83.89
2019-03-20T00:50:44.113Z,83.51
2019-03-20T00:53:12.784Z,83.34
2019-03-20T00:55:41.489Z,83.39
2019-03-20T00:58:10.223Z,83.50
2019-03-20T01:00:38.994Z,83.02
2019-03-20T01:03:07.725Z,82.49
2019-03-20T01:05:36.426Z,82.57
2019-03-20T01:08:05.153Z,82.24
2019-03-20T01:10:33.844Z,82.01
2019-03-20T01:13:02.528Z,81.84
2019-03-20T01:15:31.170Z,81.84
2019-03-20T01:17:59.883Z,82.12
2019-03-20T01:20:28.575Z,82.11
2019-03-20T01:22:57.272Z,83.11
2019-03-20T01:25:25.965Z,84.16
2019-03-20T01:27:54.578Z,83.74
2019-03-20T01:30:33.892Z,84.03
2019-03-20T01:33:05.084Z,84.10
2019-03-20T01:35:33.748Z,84.19
2019-03-20T01:38:02.487Z,83.88
2019-03-20T01:40:31.150Z,83.71
2019-03-20T01:42:59.815Z,83.80
2019-03-20T01:45:28.448Z,84.41
2019-03-20T01:47:57.204Z,84.04
2019-03-20T01:50:26.137Z,84.49
2019-03-20T01:52:54.875Z,84.86
2019-03-20T01:55:23.659Z,84.69
2019-03-20T01:57:52.319Z,84.65
2019-03-20T02:00:21.064Z,85.53
2019-03-20T02:02:49.884Z,85.11
2019-03-20T02:05:18.803Z,85.04
2019-03-20T02:07:47.502Z,85.49
2019-03-20T02:10:18.223Z,86.31
2019-03-20T02:12:46.859Z,86.27
2019-03-20T02:15:19.298Z,85.87
2019-03-20T02:17:48.130Z,86.23
2019-03-20T02:20:19.204Z,86.23
2019-03-20T02:22:47.942Z,86.39
2019-03-20T02:25:16.583Z,86.05
2019-03-20T02:27:45.305Z,87.19
2019-03-20T02:30:16.893Z,87.75
2019-03-20T02:32:45.629Z,87.72
2019-03-20T02:35:14.545Z,87.16
2019-03-20T02:37:43.170Z,87.30
2019-03-20T02:40:16.205Z,86.82
2019-03-20T02:42:44.922Z,86.77
2019-03-20T02:45:17.831Z,86.48
2019-03-20T02:47:46.633Z,86.99
2019-03-20T02:50:16.045Z,87.01
2019-03-20T02:52:44.761Z,86.94
2019-03-20T02:55:14.314Z,86.59
2019-03-20T02:57:42.973Z,86.81
2019-03-20T03:00:17.416Z,86.85
2019-03-20T03:02:46.322Z,86.97
2019-03-20T03:05:16.230Z,87.24
2019-03-20T03:07:45.061Z,88.00
2019-03-20T03:10:16.605Z,88.22
2019-03-20T03:12:45.264Z,88.28
2019-03-20T03:15:16.564Z,87.86
2019-03-20T03:17:45.293Z,87.95
2019-03-20T03:20:16.639Z,88.04
2019-03-20T03:22:45.388Z,88.23
2019-03-20T03:25:15.370Z,88.19
2019-03-20T03:27:44.097Z,88.23
2019-03-20T03:30:15.061Z,88.19
2019-03-20T03:32:43.716Z,88.06
2019-03-20T03:35:17.082Z,87.27
2019-03-20T03:37:42.929Z,88.15
2019-03-20T03:40:17.410Z,88.86
2019-03-20T03:42:46.159Z,89.34
2019-03-20T03:45:18.134Z,89.17
2019-03-20T03:47:46.847Z,89.17
2019-03-20T03:50:15.787Z,89.20
2019-03-20T03:52:44.493Z,89.04
2019-03-20T03:55:15.826Z,88.63
2019-03-20T03:57:45.275Z,88.89
2019-03-20T04:00:20.732Z,88.76
2019-03-20T04:02:49.371Z,88.42
2019-03-20T04:05:18.183Z,87.80
2019-03-20T04:07:46.890Z,87.72
2019-03-20T04:10:17.853Z,88.44
2019-03-20T04:12:46.820Z,88.80
2019-03-20T04:15:16.935Z,87.74
2019-03-20T04:17:45.627Z,88.37
2019-03-20T04:20:20.015Z,89.59
2019-03-20T04:22:48.758Z,89.93
2019-03-20T04:25:17.744Z,89.62
2019-03-20T04:27:46.438Z,88.95
2019-03-20T04:30:19.081Z,89.25
2019-03-20T04:32:47.817Z,90.32
2019-03-20T04:35:16.572Z,91.59
2019-03-20T04:37:45.245Z,91.73
2019-03-20T04:40:18.164Z,91.36
2019-03-20T04:42:46.832Z,91.41
2019-03-20T04:45:17.149Z,90.74
2019-03-20T04:47:45.870Z,89.74
2019-03-20T04:50:16.220Z,89.27
2019-03-20T04:52:44.949Z,89.15
2019-03-20T04:55:13.777Z,89.46
2019-03-20T04:57:42.416Z,89.60
2019-03-20T05:00:17.798Z,89.39
2019-03-20T05:02:46.560Z,89.37
2019-03-20T05:05:15.357Z,89.36
2019-03-20T05:07:44.079Z,89.09
2019-03-20T05:10:15.322Z,88.87
2019-03-20T05:12:44.039Z,88.54
2019-03-20T05:15:14.249Z,88.04
2019-03-20T05:17:44.691Z,87.69
2019-03-20T05:20:18.253Z,87.53
2019-03-20T05:22:46.852Z,87.04
2019-03-20T05:25:15.529Z,86.78
2019-03-20T05:27:44.303Z,86.85
2019-03-20T05:30:15.781Z,86.66
2019-03-20T05:32:44.486Z,86.81
2019-03-20T05:35:13.170Z,87.00
2019-03-20T05:37:42.015Z,86.46
2019-03-20T05:40:12.759Z,86.36
2019-03-20T05:42:41.375Z,85.97
2019-03-20T05:45:12.948Z,85.93
2019-03-20T05:47:41.706Z,85.89
2019-03-20T05:50:13.036Z,85.42
2019-03-20T05:52:41.684Z,84.94
2019-03-20T05:55:10.432Z,85.63
2019-03-20T05:57:39.132Z,85.00
2019-03-20T06:00:17.580Z,85.33
2019-03-20T06:02:46.272Z,85.31
2019-03-20T06:05:15.043Z,84.81
2019-03-20T06:07:43.788Z,84.94
2019-03-20T06:10:17.277Z,84.94
2019-03-20T06:12:45.930Z,85.06
2019-03-20T06:15:15.210Z,84.77
2019-03-20T06:17:46.617Z,84.21
2019-03-20T06:20:16.973Z,84.57
2019-03-20T06:22:45.682Z,84.63
2019-03-20T06:25:16.369Z,83.83
2019-03-20T06:27:44.959Z,84.32
2019-03-20T06:30:15.568Z,83.75
2019-03-20T06:32:44.352Z,83.60
2019-03-20T06:35:13.240Z,84.20
2019-03-20T06:37:41.857Z,83.65
2019-03-20T06:40:17.519Z,83.09
2019-03-20T06:42:46.233Z,82.91
2019-03-20T06:45:22.466Z,83.26
2019-03-20T06:47:51.129Z,83.71
2019-03-20T06:50:21.699Z,83.66
2019-03-20T06:52:50.473Z,83.23
2019-03-20T06:55:20.618Z,83.45
2019-03-20T06:57:49.453Z,82.72
2019-03-20T07:00:35.864Z,82.80
2019-03-20T07:03:27.172Z,83.32
2019-03-20T07:06:16.396Z,83.58
2019-03-20T07:08:59.646Z,83.69
2019-03-20T07:11:27.030Z,83.65
2019-03-20T07:13:55.656Z,83.36
2019-03-20T07:16:24.362Z,82.90
2019-03-20T07:18:53.024Z,82.71
2019-03-20T07:21:21.663Z,81.99
2019-03-20T07:23:50.233Z,82.80
2019-03-20T07:26:18.992Z,82.58
2019-03-20T07:28:47.693Z,82.49
2019-03-20T07:31:16.322Z,82.51
2019-03-20T07:33:44.955Z,82.32
2019-03-20T07:36:14.116Z,82.66
2019-03-20T07:38:42.990Z,82.30
2019-03-20T07:41:11.736Z,82.54
2019-03-20T07:43:40.414Z,82.61
2019-03-20T07:46:09.063Z,82.62
2019-03-20T07:48:37.763Z,82.80
2019-03-20T07:51:06.509Z,82.92
2019-03-20T07:53:35.143Z,82.78
2019-03-20T07:56:05.080Z,82.66
2019-03-20T07:58:33.723Z,82.97
2019-03-20T08:01:02.456Z,82.79
2019-03-20T08:03:31.315Z,82.66
2019-03-20T08:06:00.050Z,83.35
2019-03-20T08:08:28.785Z,83.60
2019-03-20T08:10:57.461Z,82.84
2019-03-20T08:13:26.133Z,83.07
2019-03-20T08:15:54.960Z,82.53
2019-03-20T08:18:23.705Z,82.40
2019-03-20T08:20:52.283Z,82.75
2019-03-20T08:23:21.020Z,82.45
2019-03-20T08:25:49.664Z,83.57
2019-03-20T08:28:18.435Z,82.51
2019-03-20T08:30:47.237Z,81.66
2019-03-20T08:33:15.939Z,81.53
2019-03-20T08:35:44.784Z,81.84
2019-03-20T08:38:18.194Z,81.43
2019-03-20T08:40:43.832Z,82.10
2019-03-20T08:43:12.689Z,83.07
2019-03-20T08:45:41.390Z,82.88
2019-03-20T08:48:10.217Z,82.67
2019-03-20T08:50:38.833Z,83.30
2019-03-20T08:53:07.482Z,83.34
2019-03-20T08:55:36.189Z,83.56
2019-03-20T08:58:05.153Z,83.35
2019-03-20T09:00:33.795Z,82.47
2019-03-20T09:03:02.530Z,82.76
2019-03-20T09:05:31.267Z,82.74
2019-03-20T09:08:00.030Z,82.14
2019-03-20T09:10:28.721Z,82.09
2019-03-20T09:12:57.270Z,82.19
2019-03-20T09:15:26.155Z,81.46
2019-03-20T09:17:54.861Z,82.33
2019-03-20T09:20:25.665Z,82.05
2019-03-20T09:22:54.348Z,82.46
2019-03-20T09:25:25.761Z,82.09
2019-03-20T09:27:54.509Z,81.86
2019-03-20T09:30:27.707Z,82.07
2019-03-20T09:32:56.330Z,81.72
2019-03-20T09:35:25.058Z,81.84
2019-03-20T09:37:53.722Z,81.27
2019-03-20T09:40:24.942Z,81.28
2019-03-20T09:42:53.588Z,81.16
2019-03-20T09:45:26.849Z,81.51
2019-03-20T09:47:55.612Z,81.15
2019-03-20T09:50:24.941Z,81.42
2019-03-20T09:52:54.355Z,81.11
2019-03-20T09:55:23.040Z,80.67
2019-03-20T09:57:51.803Z,80.87
2019-03-20T10:00:25.831Z,80.83
2019-03-20T10:02:54.505Z,80.45
2019-03-20T10:05:23.168Z,80.32
2019-03-20T10:07:51.869Z,80.49
2019-03-20T10:10:32.146Z,80.17
2019-03-20T10:13:00.793Z,79.85
2019-03-20T10:15:31.379Z,79.99
2019-03-20T10:18:00.093Z,81.03
2019-03-20T10:20:28.859Z,80.17
2019-03-20T10:22:57.573Z,80.26
2019-03-20T10:25:26.196Z,80.24
2019-03-20T10:27:54.916Z,80.70
2019-03-20T10:30:28.123Z,80.14
2019-03-20T10:32:56.905Z,80.82
2019-03-20T10:35:25.602Z,79.54
2019-03-20T10:37:54.229Z,80.18
2019-03-20T10:40:29.070Z,79.97
2019-03-20T10:42:57.947Z,79.64
2019-03-20T10:45:28.225Z,79.92
2019-03-20T10:47:57.349Z,81.02
2019-03-20T10:50:31.584Z,80.97
2019-03-20T10:53:00.346Z,80.62
2019-03-20T10:55:29.094Z,81.22
2019-03-20T10:57:57.736Z,79.98
2019-03-20T11:00:28.544Z,80.91
2019-03-20T11:02:57.334Z,81.06
2019-03-20T11:05:26.054Z,81.74
2019-03-20T11:07:54.810Z,81.33
2019-03-20T11:10:25.291Z,81.33
2019-03-20T11:12:54.163Z,82.30
2019-03-20T11:15:25.347Z,82.41
2019-03-20T11:17:54.027Z,83.25
2019-03-20T11:20:25.326Z,83.89
2019-03-20T11:23:07.986Z,83.95
2019-03-20T11:25:49.522Z,85.08
2019-03-20T11:28:31.674Z,86.34
2019-03-20T11:31:01.005Z,86.64
2019-03-20T11:33:29.693Z,87.08
2019-03-20T11:36:07.660Z,86.99
2019-03-20T11:38:36.905Z,86.48
2019-03-20T11:41:06.810Z,86.48
2019-03-20T11:43:37.115Z,86.61
2019-03-20T11:46:05.860Z,86.11
2019-03-20T11:48:34.607Z,85.19
2019-03-20T11:51:03.367Z,85.09
2019-03-20T11:53:32.073Z,85.07
2019-03-20T11:56:00.780Z,84.29
2019-03-20T11:58:29.519Z,83.77
2019-03-20T12:00:58.374Z,84.63
2019-03-20T12:03:27.114Z,84.07
2019-03-20T12:05:55.805Z,83.35
2019-03-20T12:08:24.512Z,82.87
2019-03-20T12:10:53.249Z,83.54
2019-03-20T12:13:22.008Z,83.71
2019-03-20T12:15:50.667Z,83.23
2019-03-20T12:18:19.376Z,83.65
2019-03-20T12:20:48.296Z,83.70
2019-03-20T12:23:17.003Z,83.34
2019-03-20T12:25:45.625Z,83.64
2019-03-20T12:28:14.516Z,83.49
2019-03-20T12:30:43.476Z,83.38
2019-03-20T12:33:12.196Z,82.77
2019-03-20T12:35:46.533Z,83.03
2019-03-20T12:38:15.675Z,83.45
2019-03-20T12:40:44.412Z,83.52
2019-03-20T12:43:13.275Z,84.08
2019-03-20T12:45:42.057Z,84.04
2019-03-20T12:48:16.849Z,84.38
2019-03-20T12:50:45.577Z,84.60
2019-03-20T12:53:20.187Z,84.50
2019-03-20T12:55:48.920Z,84.29
2019-03-20T12:58:17.732Z,84.25
2019-03-20T13:03:16.791Z,85.05
2019-03-20T13:05:45.590Z,84.58
2019-03-20T13:08:14.476Z,84.48
2019-03-20T13:10:43.179Z,83.42
2019-03-20T13:13:12.066Z,83.29
2019-03-20T13:15:40.923Z,83.74
2019-03-20T13:18:09.663Z,83.61
2019-03-20T13:20:38.578Z,83.47
2019-03-20T13:23:22.612Z,82.82
2019-03-20T13:25:51.784Z,82.75
2019-03-20T13:28:21.347Z,83.02
2019-03-20T13:30:56.965Z,83.01
2019-03-20T13:33:26.344Z,83.67
2019-03-20T13:38:47.900Z,84.04
2019-03-20T13:41:16.624Z,84.47
2019-03-20T13:43:45.263Z,84.31
2019-03-20T13:46:14.090Z,84.48
2019-03-20T13:48:42.766Z,84.28
2019-03-20T13:51:11.440Z,84.91
2019-03-20T13:53:40.193Z,85.44
2019-03-20T13:56:08.858Z,84.82
2019-03-20T13:58:37.620Z,84.86
2019-03-20T14:01:06.483Z,84.71
2019-03-20T14:03:35.185Z,85.03
2019-03-20T14:06:04.088Z,85.55
2019-03-20T14:08:32.857Z,85.18
2019-03-20T14:11:01.497Z,85.22
2019-03-20T14:13:30.224Z,84.12
2019-03-20T14:15:58.999Z,84.41
2019-03-20T14:18:27.722Z,84.62
2019-03-20T14:20:56.505Z,84.69
2019-03-20T14:23:25.464Z,84.82
2019-03-20T14:25:54.148Z,85.01
2019-03-20T14:28:22.830Z,85.06
2019-03-20T14:30:51.538Z,85.75
2019-03-20T14:33:20.244Z,85.94
2019-03-20T14:35:48.999Z,86.28
2019-03-20T14:38:17.866Z,86.24
2019-03-20T14:40:46.978Z,85.88
2019-03-20T14:43:15.948Z,86.29
2019-03-20T14:45:47.392Z,85.95
2019-03-20T14:48:16.254Z,86.09
2019-03-20T14:50:53.159Z,86.34
2019-03-20T14:53:22.273Z,86.75
2019-03-20T14:55:55.043Z,86.36
2019-03-20T14:58:24.060Z,86.38
2019-03-20T15:00:54.726Z,86.16
2019-03-20T15:03:24.016Z,86.15
2019-03-20T15:05:52.756Z,86.49
2019-03-20T15:08:22.077Z,85.47
2019-03-20T15:10:50.883Z,85.56
2019-03-20T15:13:19.568Z,85.56
2019-03-20T15:15:54.214Z,85.32
2019-03-20T15:18:22.921Z,84.63
2019-03-20T15:20:51.707Z,84.87
2019-03-20T15:23:20.425Z,83.75
2019-03-20T15:25:49.617Z,83.94
2019-03-20T15:28:18.478Z,83.48
2019-03-20T15:30:47.180Z,82.92
2019-03-20T15:33:15.906Z,83.20
2019-03-20T15:35:44.552Z,82.79
2019-03-20T15:38:13.371Z,83.36
2019-03-20T15:40:42.079Z,82.77
2019-03-20T15:43:10.841Z,83.15
2019-03-20T15:45:39.606Z,83.54
2019-03-20T15:48:08.303Z,83.64
2019-03-20T15:50:37.148Z,84.25
2019-03-20T15:53:06.022Z,84.01
2019-03-20T15:55:36.571Z,83.88
2019-03-20T15:58:05.885Z,83.72
2019-03-20T16:00:34.643Z,84.17
2019-03-20T16:03:09.538Z,84.11
2019-03-20T16:05:38.261Z,83.68
2019-03-20T16:08:06.971Z,84.42
2019-03-20T16:10:35.864Z,83.77
2019-03-20T16:13:05.361Z,83.94
2019-03-20T16:15:34.098Z,84.34
2019-03-20T16:18:02.953Z,84.40
2019-03-20T16:20:31.684Z,84.48
2019-03-20T16:23:00.472Z,84.38
2019-03-20T16:25:29.532Z,84.71
2019-03-20T16:27:58.375Z,84.76
2019-03-20T16:30:29.390Z,84.48
2019-03-20T16:32:59.041Z,84.78
2019-03-20T16:35:29.780Z,84.79
2019-03-20T16:37:58.489Z,84.60
2019-03-20T16:40:29.483Z,84.68
2019-03-20T16:42:58.157Z,85.07
2019-03-20T16:45:29.306Z,84.92
2019-03-20T16:48:04.233Z,85.14
2019-03-20T16:50:32.983Z,85.00
2019-03-20T16:53:01.734Z,85.14
2019-03-20T16:55:30.485Z,85.16
2019-03-20T16:57:59.225Z,84.95
2019-03-20T17:00:33.323Z,85.01
2019-03-20T17:03:07.911Z,85.23
2019-03-20T17:05:36.868Z,85.44
2019-03-20T17:08:05.600Z,85.43
2019-03-20T17:10:42.589Z,85.42
2019-03-20T17:13:11.329Z,85.07
2019-03-20T17:15:42.673Z,85.30
2019-03-20T17:18:11.498Z,85.43
2019-03-20T17:20:42.113Z,85.31
2019-03-20T17:23:10.936Z,85.35
2019-03-20T17:25:39.636Z,85.32
2019-03-20T17:28:09.811Z,85.47
2019-03-20T17:30:40.826Z,85.71
2019-03-20T17:33:09.570Z,85.59
2019-03-20T17:35:38.391Z,85.75
2019-03-20T17:38:07.494Z,85.80
2019-03-20T17:40:36.796Z,85.90
2019-03-20T17:43:06.135Z,85.83
2019-03-20T17:45:35.610Z,86.15
2019-03-20T17:48:05.843Z,86.40
2019-03-20T17:50:37.762Z,85.99
2019-03-20T17:53:06.472Z,86.09
2019-03-20T17:55:35.157Z,86.45
2019-03-20T17:58:04.209Z,86.61
2019-03-20T18:00:43.962Z,86.27
2019-03-20T18:03:12.774Z,86.30
2019-03-20T18:05:41.444Z,86.33
2019-03-20T18:08:10.390Z,86.51
2019-03-20T18:10:39.053Z,86.61
2019-03-20T18:13:09.212Z,86.00
2019-03-20T18:15:37.851Z,86.00
2019-03-20T18:18:08.517Z,86.52
2019-03-20T18:20:38.868Z,86.32
2019-03-20T18:23:08.646Z,86.45
2019-03-20T18:25:37.481Z,86.51
2019-03-20T18:28:06.319Z,86.41
2019-03-20T18:30:38.197Z,86.58
2019-03-20T18:33:06.888Z,86.47
2019-03-20T18:35:35.551Z,86.59
2019-03-20T18:38:06.507Z,86.77
2019-03-20T18:40:35.346Z,86.63
2019-03-20T18:43:04.006Z,86.84
2019-03-20T18:45:32.698Z,86.69
2019-03-20T18:48:01.601Z,87.07
2019-03-20T18:50:30.420Z,86.82
2019-03-20T18:52:59.356Z,87.17
2019-03-20T18:55:28.989Z,86.97
2019-03-20T18:57:58.575Z,86.95
2019-03-20T19:00:33.063Z,87.07
2019-03-20T19:03:14.063Z,86.86
2019-03-20T19:05:51.713Z,86.90
2019-03-20T19:08:20.416Z,86.92
2019-03-20T19:10:49.190Z,87.07
2019-03-20T19:13:18.023Z,86.94
2019-03-20T19:15:46.716Z,87.13
2019-03-20T19:18:15.513Z,87.29
2019-03-20T19:20:44.330Z,87.38
2019-03-20T19:23:13.037Z,87.39
2019-03-20T19:25:41.654Z,87.19
2019-03-20T19:28:10.211Z,86.84
2019-03-20T19:30:38.977Z,87.12
2019-03-20T19:33:07.636Z,87.43
2019-03-20T19:35:36.442Z,87.43
2019-03-20T19:38:05.820Z,87.52
2019-03-20T19:40:34.435Z,87.64
2019-03-20T19:43:03.815Z,87.80
2019-03-20T19:45:32.618Z,87.32
2019-03-20T19:48:01.803Z,87.58
2019-03-20T19:50:30.615Z,87.48
2019-03-20T19:52:59.826Z,87.46
2019-03-20T19:55:29.309Z,87.59
2019-03-20T19:57:58.002Z,87.84
2019-03-20T20:00:28.314Z,87.87
2019-03-20T20:02:57.791Z,87.65
2019-03-20T20:05:26.414Z,87.78
2019-03-20T20:07:59.866Z,87.80
2019-03-20T20:10:28.794Z,87.69
2019-03-20T20:12:57.875Z,87.77
2019-03-20T20:15:31.580Z,88.12
2019-03-20T20:18:00.430Z,88.21
2019-03-20T20:20:37.050Z,87.82
2019-03-20T20:23:07.925Z,87.82
2019-03-20T20:25:37.388Z,88.24
2019-03-20T20:28:07.466Z,88.00
2019-03-20T20:30:36.246Z,88.17
2019-03-20T20:33:05.289Z,88.41
2019-03-20T20:35:46.240Z,88.27
2019-03-20T20:38:29.529Z,88.61
2019-03-20T20:40:59.453Z,88.55
2019-03-20T20:43:28.344Z,88.58
2019-03-20T20:45:57.197Z,88.65
2019-03-20T20:48:25.926Z,88.51
2019-03-20T20:50:54.503Z,88.51
2019-03-20T20:53:23.154Z,88.31
2019-03-20T20:55:51.846Z,88.25
2019-03-20T20:58:20.525Z,88.38
2019-03-20T21:00:49.747Z,88.70
2019-03-20T21:03:18.757Z,88.52
2019-03-20T21:05:47.577Z,88.57
2019-03-20T21:08:16.294Z,88.63
2019-03-20T21:10:45.997Z,88.61
2019-03-20T21:13:15.366Z,88.87
2019-03-20T21:15:46.902Z,88.86
2019-03-20T21:18:21.674Z,88.70
2019-03-20T21:20:50.505Z,89.09
2019-03-20T21:23:40.836Z,88.92
2019-03-20T21:26:31.695Z,88.82
2019-03-20T21:29:35.754Z,88.60
2019-03-20T21:32:08.947Z,88.55
2019-03-20T21:34:58.886Z,88.80
2019-03-20T21:37:36.496Z,88.93
2019-03-20T21:40:09.305Z,88.73
2019-03-20T21:43:09.418Z,88.90
2019-03-20T21:45:56.073Z,89.12
2019-03-20T21:48:24.780Z,89.24
2019-03-20T21:50:56.447Z,89.30
2019-03-20T21:53:50.590Z,89.38
2019-03-20T21:56:37.485Z,89.44
2019-03-20T21:59:30.855Z,89.54
2019-03-20T22:02:18.768Z,89.52
2019-03-20T22:04:47.448Z,88.98
2019-03-20T22:07:16.163Z,89.32
2019-03-20T22:09:56.657Z,89.41
2019-03-20T22:12:39.991Z,89.52
2019-03-20T22:15:23.424Z,89.59
2019-03-20T22:18:17.440Z,89.69
2019-03-20T22:21:07.221Z,89.57
2019-03-20T22:23:59.678Z,89.36
2019-03-20T22:26:50.777Z,89.62
2019-03-20T22:29:27.325Z,89.55
2019-03-20T22:32:23.116Z,89.63
2019-03-20T22:35:27.996Z,89.67
2019-03-20T22:37:59.324Z,89.75
2019-03-20T22:40:47.279Z,89.88
2019-03-20T22:43:30.039Z,89.62
2019-03-20T22:46:17.453Z,89.64
2019-03-20T22:48:57.578Z,89.90
2019-03-20T22:51:44.212Z,89.80
2019-03-20T22:54:31.008Z,89.53
2019-03-20T22:57:08.338Z,89.38
2019-03-20T22:59:37.029Z,89.51
2019-03-20T23:02:28.030Z,89.96
2019-03-20T23:04:59.571Z,90.22
2019-03-20T23:07:30.177Z,90.23
2019-03-20T23:09:58.873Z,90.38
2019-03-20T23:12:27.562Z,90.38
2019-03-20T23:14:56.320Z,90.39
2019-03-20T23:17:25.063Z,90.57
2019-03-20T23:19:53.897Z,90.62
2019-03-20T23:22:22.632Z,90.52
2019-03-20T23:24:51.271Z,90.50
2019-03-20T23:27:23.214Z,90.39
2019-03-20T23:29:51.858Z,90.90
2019-03-20T23:32:20.602Z,90.71
2019-03-20T23:34:49.264Z,90.86
2019-03-20T23:37:17.966Z,91.23
2019-03-20T23:39:46.660Z,91.23
2019-03-20T23:42:15.398Z,91.05
2019-03-20T23:44:44.242Z,91.39
2019-03-20T23:47:12.900Z,91.28
2019-03-20T23:49:41.607Z,92.36
2019-03-20T23:52:10.375Z,93.22
2019-03-20T23:54:46.565Z,93.81
2019-03-20T23:57:16.863Z,94.19
2019-03-20T23:59:45.484Z,94.37
